Latest Weather Observations for Rutherglen RS

IDV60801

Issued at 6:35 pm EST Tuesday 29 July 2014 (issued every 30 minutes, with the page automatically refreshed every 10 minutes)

About weather observations | Map of weather stations | Latest weather observations for VIC | Other Formats
Station Details ID: 082039 Name: RUTHERGLEN RESEARCH Lat: -36.10 Lon: 146.51 Height: 175.0 m
Data from the previous 72 hours. | See also: Recent months at Rutherglen RS
Date/Time
EST
Temp
°C
App
Temp
°C
Dew
Point
Rel
Hum
%
Delta-T
°C
Wind Press
QNH
hPa
Press
MSL
hPa
Rain
since 9 am
mm
Dir
 
Spd
km/h
Gust
km/h
Spd
kts
Gust
kts
29/06:30pm 14.2 12.2 8.8 70 2.8 N 9 13 5 7 - - -
29/06:00pm 14.2 12.7 9.2 72 2.6 N 7 11 4 6 - - -
29/05:30pm 14.6 13.1 9.2 70 2.8 NNW 7 13 4 7 - - -
29/05:00pm 15.1 13.2 9.2 68 3.1 NNW 9 15 5 8 - - -
29/04:30pm 15.4 13.2 9.3 67 3.2 NNW 11 15 6 8 - - -
29/04:00pm 15.6 13.2 9.9 69 3.0 NNW 13 20 7 11 - - -
29/03:30pm 15.8 13.4 10.1 69 3.0 NNW 13 19 7 10 - - -
29/03:00pm 15.8 12.5 9.5 66 3.3 NW 17 32 9 17 - - 0.0
29/02:30pm 16.4 12.7 10.0 66 3.4 NNW 20 32 11 17 - - 0.0
29/02:00pm 15.7 12.0 9.6 67 3.2 NW 19 30 10 16 - - 0.0
29/01:30pm 15.3 11.7 9.7 69 2.9 NNW 19 30 10 16 - - 0.0
29/01:00pm 15.9 12.5 10.4 70 2.9 NW 19 28 10 15 - - 0.0
29/12:30pm 15.1 12.8 10.5 74 2.4 NW 13 20 7 11 - - 0.0
29/12:00pm 14.7 12.7 10.3 75 2.3 NNW 11 17 6 9 - - 0.0
29/11:30am 13.7 11.2 9.7 77 2.1 NNE 13 19 7 10 - - 0.0
29/11:00am 12.9 11.1 9.5 80 1.7 NNE 9 17 5 9 - - 0.0
29/10:30am 11.6 9.6 8.5 81 1.5 NNE 9 15 5 8 - - 0.0
29/10:00am 10.9 8.7 8.0 82 1.4 N 9 15 5 8 - - 0.0
29/09:30am 9.8 7.1 7.2 84 1.2 ENE 11 15 6 8 - - 0.0
29/09:00am 8.1 6.7 7.3 95 0.4 NNE 4 11 2 6 - - 0.0
29/08:30am 7.4 5.1 7.3 99 0.0 ENE 9 11 5 6 - - 0.0
29/08:00am 6.2 4.2 6.2 100 0.0 SE 6 7 3 4 - - 0.0
29/07:30am 5.6 3.4 5.5 99 0.0 NE 6 7 3 4 - - 0.0
29/07:00am 5.5 3.2 5.5 100 0.0 NNE 7 11 4 6 - - 0.0
29/06:30am 3.9 1.2 3.9 100 0.0 NE 7 11 4 6 - - 0.0
29/06:00am 3.3 0.7 3.3 100 0.0 E 6 7 3 4 - - 0.0
29/05:30am 2.5 0.9 2.5 100 0.0 E 0 0 0 0 - - 0.0
29/05:00am 3.9 2.6 3.9 100 0.0 CALM 0 0 0 0 - - 0.0
29/04:30am 4.5 3.3 4.5 100 0.0 CALM 0 0 0 0 - - 0.0
29/04:00am 4.7 3.5 4.7 100 0.0 CALM 0 6 0 3 - - 0.0
29/03:30am 5.2 4.1 5.2 100 0.0 CALM 0 0 0 0 - - 0.0
29/03:00am 6.4 5.6 6.3 99 0.0 CALM 0 0 0 0 - - 0.0
29/02:30am 7.1 4.9 6.4 95 0.3 NE 7 9 4 5 - - 0.0
29/02:00am 8.0 6.0 7.1 94 0.4 NE 7 9 4 5 - - 0.0
29/01:30am 8.4 6.5 7.5 94 0.4 ENE 7 7 4 4 - - 0.0
29/01:00am 8.8 6.5 7.6 92 0.6 NE 9 13 5 7 - - 0.0
29/12:30am 8.5 6.4 8.4 99 0.0 NE 9 11 5 6 - - 0.0
29/12:00am 7.4 5.4 7.3 99 0.0 ENE 7 9 4 5 - - 0.0
 
Date/Time
EST
Temp
°C
App
Temp
°C
Dew
Point
Rel
Hum
%
Delta-T
°C
Wind Press
QNH
hPa
Press
MSL
hPa
Rain
since 9 am
mm
Dir
 
Spd
km/h
Gust
km/h
Spd
kts
Gust
kts
28/11:30pm 8.6 6.4 7.8 95 0.4 NE 9 13 5 7 - - 0.0
28/11:00pm 9.3 7.3 8.5 95 0.4 ENE 9 13 5 7 - - 0.0
28/10:30pm 9.5 7.5 8.7 95 0.4 ENE 9 13 5 7 - - 0.0
28/10:00pm 10.3 8.4 9.2 93 0.6 ENE 9 11 5 6 - - 0.0
28/09:30pm 10.3 8.8 9.2 93 0.6 E 7 11 4 6 - - 0.0
28/09:00pm 11.3 9.6 9.9 91 0.7 ENE 9 13 5 7 - - 0.0
28/08:30pm 11.1 9.3 10.8 98 0.2 ENE 11 15 6 8 - - 0.0
28/08:00pm 11.0 9.2 10.7 98 0.2 E 11 15 6 8 - - 0.0
28/07:30pm 11.2 9.1 11.0 99 0.1 E 13 17 7 9 - - 0.0
28/07:00pm 11.2 9.1 11.0 99 0.1 ENE 13 17 7 9 - - 0.0
28/06:30pm 11.6 9.2 11.4 99 0.1 ENE 15 19 8 10 - - 0.0
28/06:00pm 12.0 9.7 11.7 98 0.2 ENE 15 20 8 11 - - 0.0
28/05:30pm 11.8 10.1 11.3 97 0.3 ENE 11 15 6 8 - - 0.0
28/05:00pm 12.5 11.3 11.6 94 0.5 NE 9 19 5 10 - - 0.0
28/04:30pm 13.2 11.7 11.8 91 0.8 NE 11 19 6 10 - - 0.0
28/04:00pm 13.7 11.7 11.4 86 1.2 NE 13 19 7 10 - - 0.0
28/03:30pm 14.3 12.5 10.9 80 1.8 NNE 11 20 6 11 - - 0.0
28/03:00pm 14.3 12.2 11.1 81 1.7 NE 13 24 7 13 - - 0.0
28/02:30pm 14.0 11.9 11.3 84 1.4 NE 13 19 7 10 - - 0.0
28/02:00pm 14.1 11.6 11.1 82 1.6 NE 15 20 8 11 - - 0.0
28/01:30pm 14.0 11.8 10.8 81 1.7 NNE 13 19 7 10 - - 0.0
28/01:00pm 13.5 11.0 9.6 77 2.0 N 13 19 7 10 - - 0.0
28/12:30pm 13.1 10.8 10.5 84 1.4 N 13 20 7 11 - - 0.0
28/12:00pm 12.8 10.8 10.2 84 1.4 NNE 11 19 6 10 - - 0.0
28/11:30am 12.7 10.3 10.1 84 1.3 NNE 13 20 7 11 - - 0.0
28/11:00am 11.9 9.4 9.8 87 1.1 NNE 13 22 7 12 - - 0.0
28/10:30am 11.5 9.3 10.9 96 0.3 NE 13 20 7 11 - - 0.0
28/10:00am 10.6 8.3 10.3 98 0.2 NE 13 19 7 10 - - 0.0
28/09:30am 10.2 7.8 10.2 100 0.0 NE 13 20 7 11 - - 0.0
28/09:00am 8.8 5.7 8.8 100 0.0 ENE 15 22 8 12 - - 0.0
28/08:30am 7.9 5.3 7.9 100 0.0 ENE 11 19 6 10 - - 0.0
28/08:00am 5.8 2.4 5.8 100 0.0 ENE 13 19 7 10 - - 0.0
28/07:30am 4.0 0.6 4.0 100 0.0 ENE 11 15 6 8 - - 0.0
28/07:00am 3.5 0.4 3.5 100 0.0 ENE 9 11 5 6 - - 0.0
28/06:30am 4.4 1.5 4.4 100 0.0 ENE 9 11 5 6 - - 0.0
28/06:00am 2.5 -0.4 2.5 100 0.0 E 7 11 4 6 - - 0.0
28/05:30am 1.3 -2.2 1.3 100 0.0 E 9 9 5 5 - - 0.0
28/05:00am 2.0 -1.0 2.0 100 0.0 E 7 9 4 5 - - 0.0
28/04:30am 2.5 -0.4 2.5 100 0.0 E 7 9 4 5 - - 0.0
28/04:00am 3.9 1.4 3.9 100 0.0 E 6 7 3 4 - - 0.0
28/03:30am 4.7 2.2 4.7 100 0.0 E 7 9 4 5 - - 0.0
28/03:00am 4.9 2.4 4.9 100 0.0 E 7 11 4 6 - - 0.0
28/02:30am 3.7 1.0 3.7 100 0.0 E 7 9 4 5 - - 0.0
28/02:00am 4.2 1.6 4.2 100 0.0 ENE 7 9 4 5 - - 0.0
28/01:30am 2.0 -1.4 2.0 100 0.0 E 9 9 5 5 - - 0.0
28/01:00am 2.7 -0.2 2.7 100 0.0 ENE 7 9 4 5 - - 0.0
28/12:30am 2.4 -0.3 2.4 100 0.0 E 6 7 3 4 - - 0.0
28/12:00am 3.3 1.9 3.3 100 0.0 CALM 0 0 0 0 - - 0.0
 
Date/Time
EST
Temp
°C
App
Temp
°C
Dew
Point
Rel
Hum
%
Delta-T
°C
Wind Press
QNH
hPa
Press
MSL
hPa
Rain
since 9 am
mm
Dir
 
Spd
km/h
Gust
km/h
Spd
kts
Gust
kts
27/11:30pm 4.5 2.1 4.5 100 0.0 NE 6 9 3 5 - - 0.0
27/11:00pm 4.3 1.9 4.3 100 0.0 ESE 6 7 3 4 - - 0.0
27/10:30pm 3.9 1.2 3.9 100 0.0 E 7 9 4 5 - - 0.0
27/10:00pm 4.2 1.6 4.2 100 0.0 ENE 7 9 4 5 - - 0.0
27/09:30pm 6.4 4.4 6.4 100 0.0 ENE 6 7 3 4 - - 0.0
27/09:00pm 6.7 4.8 6.7 100 0.0 E 6 6 3 3 - - 0.0
27/08:30pm 6.5 4.4 6.5 100 0.0 ENE 7 11 4 6 - - 0.0
27/08:00pm 6.4 5.6 6.4 100 0.0 CALM 0 0 0 0 - - 0.0
27/07:30pm 7.4 5.7 7.4 100 0.0 ENE 6 7 3 4 - - 0.0
27/07:00pm 7.0 5.0 7.0 100 0.0 ENE 7 9 4 5 - - 0.0
27/06:30pm 6.5 4.6 6.5 100 0.0 E 6 7 3 4 - - 0.0
27/06:00pm 7.4 5.7 7.4 100 0.0 E 6 6 3 3 - - 0.0
27/05:30pm 7.0 4.6 7.0 100 0.0 E 9 11 5 6 - - 0.0
27/05:00pm 8.3 6.2 8.3 100 0.0 E 9 13 5 7 - - 0.0
27/04:30pm 9.3 7.1 9.3 100 0.0 ENE 11 15 6 8 - - 0.0
27/04:00pm 9.9 7.5 9.9 100 0.0 ENE 13 17 7 9 - - 0.0
27/03:30pm 10.3 8.7 10.3 100 0.0 NE 9 13 5 7 - - 0.0
27/03:00pm 9.9 8.6 9.9 100 0.0 ENE 7 11 4 6 - - 0.0
27/02:30pm 9.7 8.3 9.7 100 0.0 ENE 7 11 4 6 - - 0.0
27/02:00pm 8.8 7.2 8.8 100 0.0 NE 7 11 4 6 - - 0.0
27/01:30pm 8.5 7.0 8.5 100 0.0 NNE 6 9 3 5 - - 0.0
27/01:00pm 8.4 6.7 8.4 100 0.0 N 7 9 4 5 - - 0.0
27/12:30pm 8.0 5.8 8.0 100 0.0 ENE 9 13 5 7 - - 0.0
27/12:00pm 7.7 5.5 7.7 100 0.0 NNE 9 11 5 6 - - 0.0
27/11:30am 7.5 5.8 7.5 100 0.0 NE 6 9 3 5 - - 0.0
27/11:00am 7.2 5.2 7.2 100 0.0 N 7 9 4 5 - - 0.0
27/10:30am 6.6 4.5 6.6 100 0.0 N 7 9 4 5 - - 0.0
27/10:00am 6.7 4.6 6.7 100 0.0 NNE 7 9 4 5 - - 0.0
27/09:30am 6.1 3.9 6.1 100 0.0 N 7 9 4 5 - - 0.0
27/09:00am 5.8 3.5 5.8 100 0.0 N 7 9 4 5 - - 0.2
27/08:30am 5.7 3.0 5.7 100 0.0 NE 9 11 5 6 - - 0.2
27/08:00am 5.4 3.2 5.4 100 0.0 NNE 6 9 3 5 - - 0.2
27/07:30am 5.4 3.6 5.4 100 0.0 NNE 4 7 2 4 - - 0.2
27/07:00am 5.2 3.0 5.2 100 0.0 NE 6 7 3 4 - - 0.2
27/06:30am 4.9 2.0 4.9 100 0.0 ENE 9 9 5 5 - - 0.0
27/06:00am 5.1 2.7 5.1 100 0.0 ENE 7 9 4 5 - - 0.0
27/05:30am 5.2 4.1 5.2 100 0.0 CALM 0 0 0 0 - - 0.0
27/05:00am 5.4 3.6 5.4 100 0.0 W 4 7 2 4 - - 0.0
27/04:30am 5.7 4.0 5.7 100 0.0 W 4 6 2 3 - - 0.0
27/04:00am 6.3 4.7 6.3 100 0.0 W 4 7 2 4 - - 0.0
27/03:30am 6.5 4.9 6.5 100 0.0 NW 4 7 2 4 - - 0.0
27/03:00am 6.0 5.1 6.0 100 0.0 CALM 0 0 0 0 - - 0.0
27/02:30am 5.6 4.6 5.6 100 0.0 CALM 0 0 0 0 - - 0.0
27/02:00am 5.0 3.9 5.0 100 0.0 CALM 0 0 0 0 - - 0.0
27/01:30am 4.8 3.6 4.8 100 0.0 CALM 0 0 0 0 - - 0.0
27/01:00am 4.4 3.2 4.4 100 0.0 CALM 0 0 0 0 - - 0.0
27/12:30am 4.7 3.5 4.7 100 0.0 CALM 0 0 0 0 - - 0.0
27/12:00am 4.7 3.5 4.7 100 0.0 CALM 0 0 0 0 - - 0.0
 
Date/Time
EST
Temp
°C
App
Temp
°C
Dew
Point
Rel
Hum
%
Delta-T
°C
Wind Press
QNH
hPa
Press
MSL
hPa
Rain
since 9 am
mm
Dir
 
Spd
km/h
Gust
km/h
Spd
kts
Gust
kts
26/11:30pm 5.4 4.4 5.4 100 0.0 CALM 0 0 0 0 - - 0.0
26/11:00pm 5.0 3.9 5.0 100 0.0 CALM 0 2 0 1 - - 0.0
26/10:30pm 5.5 4.5 5.5 100 0.0 CALM 0 0 0 0 - - 0.0
26/10:00pm 5.1 4.0 5.1 100 0.0 CALM 0 0 0 0 - - 0.0
26/09:30pm 4.4 3.2 4.4 100 0.0 CALM 0 0 0 0 - - 0.0
26/09:00pm 3.5 2.1 3.5 100 0.0 CALM 0 0 0 0 - - 0.0
26/08:30pm 4.2 2.9 4.2 100 0.0 CALM 0 0 0 0 - - 0.0
26/08:00pm 4.8 3.6 4.8 100 0.0 CALM 0 0 0 0 - - 0.0
26/07:30pm 5.1 4.0 5.1 100 0.0 CALM 0 0 0 0 - - 0.0
26/07:00pm 6.9 4.9 6.9 100 0.0 W 7 9 4 5 - - 0.0

Other Formats:

Comma delimited format used in spreadsheet applications
http://www.bom.gov.au/fwo/IDV60801/IDV60801.95837.axf

JavaScript Object Notation format (JSON) in row-major order
http://www.bom.gov.au/fwo/IDV60801/IDV60801.95837.json